createdAt,value
2023-04-14T00:01:17.547Z,63.07
2023-04-14T00:03:45.485Z,63.45
2023-04-14T00:06:12.832Z,62.46
2023-04-14T00:08:39.913Z,62.17
2023-04-14T00:11:07.015Z,62.20
2023-04-14T00:13:34.247Z,62.60
2023-04-14T00:16:01.498Z,62.34
2023-04-14T00:18:28.713Z,62.34
2023-04-14T00:20:55.818Z,61.35
2023-04-14T00:23:22.929Z,61.46
2023-04-14T00:25:51.193Z,61.33
2023-04-14T00:28:18.384Z,62.06
2023-04-14T00:30:47.271Z,62.25
2023-04-14T00:33:14.356Z,61.87
2023-04-14T00:35:41.497Z,61.26
2023-04-14T00:38:08.605Z,61.63
2023-04-14T00:40:35.696Z,61.82
2023-04-14T00:43:02.797Z,62.47
2023-04-14T00:45:29.961Z,62.36
2023-04-14T00:47:58.632Z,61.78
2023-04-14T00:50:26.246Z,62.19
2023-04-14T00:52:53.782Z,61.94
2023-04-14T00:55:21.539Z,62.22
2023-04-14T00:57:49.815Z,62.50
2023-04-14T01:00:17.201Z,61.73
2023-04-14T01:02:44.663Z,61.30
2023-04-14T01:05:12.473Z,60.98
2023-04-14T01:07:40.714Z,61.04
2023-04-14T01:10:11.660Z,61.28
2023-04-14T01:13:23.685Z,61.45
2023-04-14T01:16:01.484Z,61.42
2023-04-14T01:18:41.288Z,61.43
2023-04-14T01:21:17.914Z,60.37
2023-04-14T01:24:17.021Z,59.97
2023-04-14T01:26:45.722Z,61.07
2023-04-14T01:29:54.214Z,60.53
2023-04-14T01:32:24.180Z,60.28
2023-04-14T01:34:56.869Z,61.84
2023-04-14T01:37:32.298Z,60.44
2023-04-14T01:40:03.805Z,61.15
2023-04-14T01:42:36.285Z,61.36
2023-04-14T01:45:21.149Z,61.32
2023-04-14T01:47:49.054Z,60.55
2023-04-14T01:50:19.515Z,60.12
2023-04-14T01:52:51.553Z,61.10
2023-04-14T01:55:20.914Z,60.86
2023-04-14T01:57:51.250Z,61.18
2023-04-14T02:00:20.731Z,60.13
2023-04-14T02:02:52.466Z,59.56
2023-04-14T02:05:21.446Z,60.31
2023-04-14T02:07:52.747Z,60.56
2023-04-14T02:10:53.092Z,60.36
2023-04-14T02:13:22.269Z,61.10
2023-04-14T02:15:54.064Z,60.04
2023-04-14T02:18:23.566Z,61.90
2023-04-14T02:20:53.471Z,61.02
2023-04-14T02:23:20.635Z,60.34
2023-04-14T02:25:56.251Z,60.74
2023-04-14T02:28:28.721Z,60.06
2023-04-14T02:30:59.523Z,59.12
2023-04-14T02:33:31.835Z,59.35
2023-04-14T02:36:13.353Z,58.69
2023-04-14T02:38:47.940Z,59.64
2023-04-14T02:41:25.081Z,59.47
2023-04-14T02:44:07.575Z,58.40
2023-04-14T02:46:41.249Z,58.36
2023-04-14T02:49:13.620Z,58.74
2023-04-14T02:51:44.073Z,59.07
2023-04-14T02:54:14.334Z,59.23
2023-04-14T02:56:46.072Z,58.84
2023-04-14T02:59:13.929Z,58.04
2023-04-14T03:01:54.252Z,58.45
2023-04-14T03:04:23.062Z,59.13
2023-04-14T03:06:51.511Z,59.05
2023-04-14T03:09:20.489Z,59.10
2023-04-14T03:11:47.983Z,58.21
2023-04-14T03:14:18.244Z,58.35
2023-04-14T03:16:46.664Z,58.35
2023-04-14T03:19:14.884Z,58.50
2023-04-14T03:21:46.849Z,58.58
2023-04-14T03:24:19.300Z,59.17
2023-04-14T03:26:49.503Z,58.02
2023-04-14T03:29:20.164Z,59.46
2023-04-14T03:31:48.317Z,59.40
2023-04-14T03:34:16.781Z,58.60
2023-04-14T03:36:51.108Z,57.67
2023-04-14T03:39:20.394Z,57.41
2023-04-14T03:41:51.823Z,57.44
2023-04-14T03:44:21.824Z,57.03
2023-04-14T03:46:51.363Z,56.93
2023-04-14T03:49:21.416Z,56.90
2023-04-14T03:52:23.065Z,56.58
2023-04-14T03:54:53.518Z,56.29
2023-04-14T03:57:23.403Z,58.41
2023-04-14T03:59:52.428Z,56.70
2023-04-14T04:02:24.393Z,56.58
2023-04-14T04:04:53.440Z,56.42
2023-04-14T04:07:21.630Z,56.74
2023-04-14T04:09:50.770Z,56.41
2023-04-14T04:12:21.078Z,56.26
2023-04-14T04:14:48.522Z,56.78
2023-04-14T04:17:19.688Z,56.30
2023-04-14T04:19:48.813Z,55.34
2023-04-14T04:22:20.517Z,57.43
2023-04-14T04:24:53.881Z,56.12
2023-04-14T04:27:28.403Z,55.79
2023-04-14T04:30:08.138Z,56.47
2023-04-14T04:32:38.589Z,55.72
2023-04-14T04:35:07.494Z,56.52
2023-04-14T04:37:37.963Z,55.99
2023-04-14T04:40:38.665Z,56.08
2023-04-14T04:43:12.164Z,54.88
2023-04-14T04:46:04.445Z,53.86
2023-04-14T04:48:31.907Z,53.19
2023-04-14T04:50:59.164Z,53.86
2023-04-14T04:53:26.368Z,54.16
2023-04-14T04:55:53.434Z,54.09
2023-04-14T04:58:20.583Z,54.77
2023-04-14T05:01:56.979Z,54.55
2023-04-14T05:04:24.258Z,55.33
2023-04-14T05:06:52.124Z,55.11
2023-04-14T05:09:19.191Z,55.25
2023-04-14T05:11:46.462Z,54.73
2023-04-14T05:14:13.525Z,53.77
2023-04-14T05:17:12.226Z,54.12
2023-04-14T05:19:39.562Z,54.06
2023-04-14T05:22:06.599Z,53.76
2023-04-14T05:24:33.667Z,53.13
2023-04-14T05:27:13.665Z,52.68
2023-04-14T05:29:41.904Z,51.52
2023-04-14T05:32:10.814Z,51.87
2023-04-14T05:34:37.908Z,51.47
2023-04-14T05:37:05.040Z,52.07
2023-04-14T05:39:32.090Z,51.56
2023-04-14T05:42:02.223Z,50.53
2023-04-14T05:44:29.320Z,51.47
2023-04-14T05:46:56.592Z,51.13
2023-04-14T05:49:23.876Z,51.41
2023-04-14T05:51:51.158Z,50.71
2023-04-14T05:54:18.236Z,50.07
2023-04-14T05:56:45.488Z,49.19
2023-04-14T05:59:12.752Z,50.42
2023-04-14T06:01:39.909Z,49.93
2023-04-14T06:04:07.421Z,50.19
2023-04-14T06:06:35.216Z,49.27
2023-04-14T06:09:02.514Z,49.00
2023-04-14T06:11:29.684Z,49.59
2023-04-14T06:13:56.837Z,49.30
2023-04-14T06:16:23.978Z,49.51
2023-04-14T06:18:51.110Z,49.38
2023-04-14T06:21:50.387Z,49.36
2023-04-14T06:24:17.507Z,49.98
2023-04-14T06:26:44.643Z,49.78
2023-04-14T06:29:12.116Z,49.50
2023-04-14T06:32:11.093Z,48.91
2023-04-14T06:34:38.301Z,48.92
2023-04-14T06:37:05.459Z,49.54
2023-04-14T06:39:32.551Z,49.83
2023-04-14T06:41:59.665Z,50.67
2023-04-14T06:44:26.924Z,51.93
2023-04-14T06:46:55.304Z,51.25
2023-04-14T06:49:24.424Z,52.02
2023-04-14T06:51:51.604Z,52.87
2023-04-14T06:54:18.721Z,53.87
2023-04-14T06:56:46.189Z,52.59
2023-04-14T06:59:46.721Z,51.79
2023-04-14T07:02:13.942Z,51.13
2023-04-14T07:04:41.325Z,51.13
2023-04-14T07:07:08.410Z,50.24
2023-04-14T07:09:35.688Z,50.31
2023-04-14T07:12:03.016Z,49.98
2023-04-14T07:14:31.797Z,51.51
2023-04-14T07:16:58.966Z,48.56
2023-04-14T07:19:26.211Z,49.44
2023-04-14T07:21:53.375Z,49.01
2023-04-14T07:24:20.619Z,47.64
2023-04-14T07:26:47.854Z,47.81
2023-04-14T07:29:15.061Z,49.03
2023-04-14T07:31:42.925Z,48.37
2023-04-14T07:34:10.074Z,48.52
2023-04-14T07:36:37.397Z,47.99
2023-04-14T07:39:04.760Z,47.43
2023-04-14T07:41:32.043Z,49.22
2023-04-14T07:44:00.422Z,48.60
2023-04-14T07:46:28.058Z,49.53
2023-04-14T07:48:55.250Z,48.78
2023-04-14T07:51:22.741Z,49.96
2023-04-14T07:53:51.203Z,49.54
2023-04-14T07:56:22.049Z,48.84
2023-04-14T07:58:49.138Z,49.16
2023-04-14T08:01:17.154Z,50.77
2023-04-14T08:03:45.565Z,49.45
2023-04-14T08:06:13.468Z,48.45
2023-04-14T08:08:40.630Z,49.54
2023-04-14T08:11:07.915Z,47.98
2023-04-14T08:13:35.023Z,47.38
2023-04-14T08:16:02.220Z,48.10
2023-04-14T08:18:29.451Z,47.61
2023-04-14T08:20:56.808Z,48.74
2023-04-14T08:23:24.236Z,47.06
2023-04-14T08:25:51.686Z,48.06
2023-04-14T08:28:18.850Z,48.98
2023-04-14T08:30:47.832Z,49.53
2023-04-14T08:33:15.125Z,49.31
2023-04-14T08:35:43.349Z,48.31
2023-04-14T08:38:11.316Z,48.89
2023-04-14T08:40:43.852Z,47.33
2023-04-14T08:43:13.702Z,48.67
2023-04-14T08:45:43.267Z,48.29
2023-04-14T08:48:15.657Z,49.81
2023-04-14T08:51:07.422Z,47.91
2023-04-14T08:53:42.899Z,48.78
2023-04-14T08:56:13.315Z,49.14
2023-04-14T08:58:42.098Z,48.49
2023-04-14T09:01:09.876Z,47.25
2023-04-14T09:03:38.300Z,48.10
2023-04-14T09:06:06.569Z,48.65
2023-04-14T09:08:34.868Z,47.90
2023-04-14T09:11:03.695Z,47.38
2023-04-14T09:13:32.131Z,47.75
2023-04-14T09:16:00.331Z,47.55
2023-04-14T09:18:28.726Z,47.34
2023-04-14T09:21:50.818Z,48.50
2023-04-14T09:23:46.939Z,46.35
2023-04-14T09:26:14.357Z,47.06
2023-04-14T09:28:41.501Z,47.13
2023-04-14T09:31:10.090Z,47.62
2023-04-14T09:33:44.537Z,47.15
2023-04-14T09:36:26.089Z,46.75
2023-04-14T09:38:53.283Z,47.40
2023-04-14T09:41:28.448Z,45.93
2023-04-14T09:43:55.833Z,45.83
2023-04-14T10:17:28.574Z,50.71
2023-04-14T10:19:56.870Z,49.38
2023-04-14T10:22:27.876Z,49.88
2023-04-14T10:24:56.365Z,49.11
2023-04-14T10:27:44.144Z,48.00
2023-04-14T10:30:12.261Z,48.13
2023-04-14T10:32:40.885Z,48.64
2023-04-14T10:35:12.760Z,48.54
2023-04-14T10:37:39.985Z,48.40
2023-04-14T10:40:08.232Z,48.18
2023-04-14T10:42:55.127Z,49.57
2023-04-14T10:45:22.740Z,47.18
2023-04-14T10:47:50.994Z,47.71
2023-04-14T10:50:22.311Z,48.22
2023-04-14T10:52:56.937Z,48.44
2023-04-14T10:55:26.054Z,47.87
2023-04-14T10:57:54.750Z,46.76
2023-04-14T11:00:23.651Z,46.01
2023-04-14T11:03:20.252Z,45.34
2023-04-14T11:05:53.481Z,45.64
2023-04-14T11:08:28.168Z,46.23
2023-04-14T11:11:03.082Z,46.12
2023-04-14T11:13:31.559Z,46.51
2023-04-14T11:16:02.073Z,47.00
2023-04-14T11:18:33.373Z,46.76
2023-04-14T11:21:04.968Z,46.38
2023-04-14T11:23:33.215Z,45.71
2023-04-14T11:26:00.620Z,46.91
2023-04-14T11:28:38.500Z,47.11
2023-04-14T11:31:08.561Z,47.92
2023-04-14T11:33:38.353Z,48.31
2023-04-14T11:36:07.796Z,49.19
2023-04-14T11:38:36.326Z,50.30
2023-04-14T11:41:04.559Z,49.49
2023-04-14T11:43:31.996Z,49.95
2023-04-14T11:46:14.808Z,48.37
2023-04-14T11:48:42.309Z,48.88
2023-04-14T11:51:09.519Z,50.17
2023-04-14T11:53:36.735Z,50.74
2023-04-14T11:56:08.817Z,51.02
2023-04-14T11:58:35.991Z,50.35
2023-04-14T12:01:03.208Z,50.32
2023-04-14T12:03:35.899Z,50.29
2023-04-14T12:06:03.988Z,49.66
2023-04-14T12:08:32.302Z,49.81
2023-04-14T12:11:13.398Z,47.57
2023-04-14T12:13:41.896Z,49.24
2023-04-14T12:16:09.804Z,47.36
2023-04-14T12:18:36.999Z,47.08
2023-04-14T12:21:07.323Z,47.67
2023-04-14T12:23:40.854Z,47.55
2023-04-14T12:26:12.295Z,48.23
2023-04-14T12:28:41.680Z,48.84
2023-04-14T12:31:09.927Z,47.44
2023-04-14T12:33:37.559Z,48.46
2023-04-14T12:36:12.309Z,48.27
2023-04-14T12:38:39.974Z,48.25
2023-04-14T12:41:07.262Z,49.17
2023-04-14T12:43:36.587Z,48.21
2023-04-14T12:46:04.908Z,48.54
2023-04-14T12:48:46.158Z,48.35
2023-04-14T12:51:18.112Z,47.97
2023-04-14T12:53:47.107Z,48.02
2023-04-14T12:56:22.748Z,49.04
2023-04-14T12:58:51.464Z,49.64
2023-04-14T13:01:21.073Z,50.30
2023-04-14T13:03:51.942Z,49.83
2023-04-14T13:06:24.221Z,51.28
2023-04-14T13:08:53.305Z,50.33
2023-04-14T13:11:21.900Z,49.83
2023-04-14T13:13:49.131Z,50.52
2023-04-14T13:16:18.710Z,49.47
2023-04-14T13:18:48.961Z,49.76
2023-04-14T13:21:16.687Z,49.48
2023-04-14T13:23:44.422Z,48.94
2023-04-14T13:26:12.702Z,49.25
2023-04-14T13:28:39.837Z,49.11
2023-04-14T13:31:07.476Z,49.09
2023-04-14T13:33:34.697Z,49.75
2023-04-14T13:36:03.042Z,48.62
2023-04-14T13:38:31.151Z,48.86
2023-04-14T13:40:58.537Z,49.21
2023-04-14T13:43:26.478Z,48.29
2023-04-14T13:45:57.867Z,48.13
2023-04-14T13:48:25.492Z,47.97
2023-04-14T13:50:53.508Z,49.10
2023-04-14T13:53:20.690Z,48.85
2023-04-14T13:55:47.839Z,49.34
2023-04-14T13:58:14.919Z,48.68
2023-04-14T14:00:42.086Z,48.74
2023-04-14T14:03:09.402Z,50.06
2023-04-14T14:06:08.795Z,50.41
2023-04-14T14:08:39.216Z,50.38
2023-04-14T14:11:06.887Z,50.97
2023-04-14T14:13:38.819Z,51.68
2023-04-14T14:16:07.515Z,52.16
2023-04-14T14:18:37.514Z,52.13
2023-04-14T14:21:05.202Z,51.04
2023-04-14T14:23:32.528Z,51.91
2023-04-14T14:26:00.909Z,52.23
2023-04-14T14:28:28.268Z,51.00
2023-04-14T14:30:55.966Z,50.94
2023-04-14T14:33:23.289Z,50.63
2023-04-14T14:35:51.079Z,50.79
2023-04-14T14:38:18.203Z,50.32
2023-04-14T14:40:45.236Z,50.51
2023-04-14T14:43:12.428Z,50.82
2023-04-14T14:45:39.553Z,50.77
2023-04-14T14:48:06.694Z,51.66
2023-04-14T14:50:33.821Z,52.33
2023-04-14T14:53:00.927Z,51.92
2023-04-14T14:55:27.992Z,52.50
2023-04-14T14:57:55.162Z,51.69
2023-04-14T15:00:23.639Z,53.23
2023-04-14T15:02:51.008Z,53.40
2023-04-14T15:05:18.504Z,54.42
2023-04-14T15:07:45.631Z,53.56
2023-04-14T15:10:12.866Z,54.90
2023-04-14T15:12:40.008Z,55.20
2023-04-14T15:15:07.840Z,55.41
2023-04-14T15:17:35.199Z,55.26
2023-04-14T15:20:05.142Z,55.17
2023-04-14T15:22:32.719Z,56.27
2023-04-14T15:24:59.802Z,56.24
2023-04-14T15:27:27.099Z,56.05
2023-04-14T15:29:54.888Z,55.43
2023-04-14T15:32:25.446Z,56.08
2023-04-14T15:34:54.649Z,56.53
2023-04-14T15:37:21.874Z,56.75
2023-04-14T15:39:49.006Z,56.61
2023-04-14T15:42:16.163Z,56.34
2023-04-14T15:44:43.186Z,56.94
2023-04-14T15:47:10.428Z,57.28
2023-04-14T15:49:37.559Z,56.77
2023-04-14T15:52:06.016Z,56.50
2023-04-14T15:54:33.875Z,56.39
2023-04-14T15:57:02.491Z,56.55
2023-04-14T15:59:29.941Z,56.84
2023-04-14T16:01:57.283Z,56.88
2023-04-14T16:04:25.645Z,58.66
2023-04-14T16:06:54.257Z,58.40
2023-04-14T16:09:21.357Z,58.12
2023-04-14T16:11:48.628Z,56.82
2023-04-14T16:14:16.010Z,56.89
2023-04-14T16:16:47.190Z,56.66
2023-04-14T16:23:04.670Z,57.48
2023-04-14T16:25:31.893Z,56.70
2023-04-14T16:27:59.138Z,57.61
2023-04-14T16:30:26.253Z,58.33
2023-04-14T16:32:53.461Z,58.35
2023-04-14T16:35:20.693Z,58.52
2023-04-14T16:37:47.778Z,58.26
2023-04-14T16:40:14.934Z,58.45
2023-04-14T16:42:42.119Z,58.76
2023-04-14T16:45:09.551Z,58.95
2023-04-14T16:47:36.735Z,58.68
2023-04-14T16:50:04.051Z,58.25
2023-04-14T16:52:31.237Z,59.02
2023-04-14T16:54:59.459Z,59.23
2023-04-14T16:57:27.497Z,59.57
2023-04-14T17:01:04.421Z,59.38
2023-04-14T17:03:31.924Z,59.73
2023-04-14T17:05:59.175Z,61.05
2023-04-14T17:08:26.749Z,61.75
2023-04-14T17:10:53.814Z,61.78
2023-04-14T17:13:21.537Z,61.14
2023-04-14T17:15:58.757Z,61.54
2023-04-14T17:18:33.720Z,61.73
2023-04-14T17:21:01.169Z,62.36
2023-04-14T17:23:28.317Z,61.99
2023-04-14T17:25:57.278Z,61.90
2023-04-14T17:28:26.771Z,62.22
2023-04-14T17:30:54.016Z,62.02
2023-04-14T17:33:22.142Z,61.76
2023-04-14T17:35:49.372Z,61.59
2023-04-14T17:38:16.548Z,61.55
2023-04-14T17:40:43.695Z,61.88
2023-04-14T17:43:10.908Z,61.61
2023-04-14T17:45:40.227Z,62.07
2023-04-14T17:48:08.204Z,60.77
2023-04-14T17:50:35.945Z,60.62
2023-04-14T17:53:03.077Z,60.70
2023-04-14T17:55:30.278Z,60.78
2023-04-14T17:57:57.857Z,59.34
2023-04-14T18:00:25.018Z,58.56
2023-04-14T18:02:52.389Z,58.79
2023-04-14T18:05:19.467Z,59.39
2023-04-14T18:07:47.081Z,59.01
2023-04-14T18:10:14.204Z,59.42
2023-04-14T18:12:43.074Z,59.64
2023-04-14T18:15:15.384Z,60.74
2023-04-14T18:17:43.442Z,60.14
2023-04-14T18:20:11.204Z,60.39
2023-04-14T18:22:39.381Z,61.92
2023-04-14T18:25:08.384Z,61.84
2023-04-14T18:28:07.304Z,61.29
2023-04-14T18:30:34.607Z,62.64
2023-04-14T18:33:01.753Z,62.39
2023-04-14T18:35:29.605Z,62.69
2023-04-14T18:37:56.779Z,62.58
2023-04-14T18:40:24.471Z,62.81
2023-04-14T18:42:54.363Z,62.72
2023-04-14T18:45:21.881Z,63.53
2023-04-14T18:47:50.047Z,62.72
2023-04-14T18:50:17.345Z,62.36
2023-04-14T18:52:44.509Z,63.20
2023-04-14T18:55:11.572Z,62.80
2023-04-14T18:57:38.649Z,62.25
2023-04-14T19:00:06.597Z,62.29
2023-04-14T19:02:34.807Z,62.66
2023-04-14T19:05:02.616Z,62.53
2023-04-14T19:07:29.887Z,63.00
2023-04-14T19:09:57.013Z,62.19
2023-04-14T19:12:28.614Z,61.78
2023-04-14T19:14:56.124Z,62.70
2023-04-14T19:17:23.337Z,62.82
2023-04-14T19:19:50.550Z,62.46
2023-04-14T19:22:17.769Z,63.50
2023-04-14T19:24:45.055Z,63.05
2023-04-14T19:27:12.137Z,62.44
2023-04-14T19:29:39.291Z,63.94
2023-04-14T19:32:06.416Z,64.07
2023-04-14T19:34:33.505Z,63.84
2023-04-14T19:37:00.730Z,63.42
2023-04-14T19:39:27.806Z,63.75
2023-04-14T19:41:54.960Z,63.63
2023-04-14T19:44:22.093Z,64.08
2023-04-14T19:46:49.224Z,63.84
2023-04-14T19:49:16.426Z,63.55
2023-04-14T19:51:43.817Z,63.90
2023-04-14T19:54:11.139Z,62.94
2023-04-14T19:56:38.338Z,62.29
2023-04-14T19:59:05.675Z,61.86
2023-04-14T20:01:32.778Z,63.38
2023-04-14T20:04:04.985Z,65.61
2023-04-14T20:06:36.185Z,66.25
2023-04-14T20:09:04.208Z,67.04
2023-04-14T20:11:31.906Z,66.79
2023-04-14T20:13:59.008Z,67.69
2023-04-14T20:16:26.779Z,66.09
2023-04-14T20:18:53.880Z,65.25
2023-04-14T20:21:20.960Z,65.29
2023-04-14T20:23:48.266Z,65.29
2023-04-14T20:26:16.587Z,66.91
2023-04-14T20:28:43.902Z,66.03
2023-04-14T20:31:11.765Z,65.08
2023-04-14T20:33:39.173Z,65.26
2023-04-14T20:36:07.162Z,67.47
2023-04-14T20:38:34.774Z,68.35
2023-04-14T20:41:02.023Z,68.20
2023-04-14T20:43:34.246Z,67.36
2023-04-14T20:46:01.722Z,68.48
2023-04-14T20:48:30.545Z,69.50
2023-04-14T20:50:58.011Z,69.45
2023-04-14T20:53:27.212Z,70.82
2023-04-14T20:55:55.065Z,71.79
2023-04-14T20:58:22.223Z,72.06
2023-04-14T21:00:49.508Z,72.46
2023-04-14T21:03:17.300Z,72.82
2023-04-14T21:05:44.561Z,73.28
2023-04-14T21:08:12.758Z,72.15
2023-04-14T21:11:02.210Z,71.94
2023-04-14T21:15:24.908Z,72.39
2023-04-14T21:16:15.868Z,73.30
2023-04-14T21:18:43.232Z,73.24
2023-04-14T21:21:11.582Z,73.13
2023-04-14T21:23:38.724Z,73.43
2023-04-14T21:26:06.215Z,73.59
2023-04-14T21:28:35.036Z,73.05
2023-04-14T21:31:03.104Z,72.28
2023-04-14T21:33:31.563Z,72.17
2023-04-14T21:35:59.119Z,70.99
2023-04-14T21:38:26.511Z,71.44
2023-04-14T21:40:53.785Z,70.38
2023-04-14T21:43:20.914Z,70.87
2023-04-14T21:45:48.238Z,69.93
2023-04-14T21:48:15.391Z,69.41
2023-04-14T21:50:43.571Z,68.89
2023-04-14T21:53:10.673Z,68.87
2023-04-14T21:55:38.302Z,69.12
2023-04-14T21:58:05.762Z,70.14
2023-04-14T22:00:32.959Z,70.62
2023-04-14T22:03:00.097Z,70.27
2023-04-14T22:05:27.344Z,68.99
2023-04-14T22:07:55.284Z,68.99
2023-04-14T22:10:23.219Z,70.18
2023-04-14T22:12:50.998Z,68.96
2023-04-14T22:15:18.159Z,69.18
2023-04-14T22:17:46.180Z,67.89
2023-04-14T22:20:14.092Z,64.83
2023-04-14T22:22:41.114Z,65.20
2023-04-14T22:25:09.870Z,66.18
2023-04-14T22:27:37.033Z,64.79
2023-04-14T22:30:36.172Z,65.44
2023-04-14T22:33:03.315Z,66.25
2023-04-14T22:35:31.099Z,65.33
2023-04-14T22:37:58.214Z,64.10
2023-04-14T22:40:25.272Z,63.45
2023-04-14T22:42:52.460Z,63.29
2023-04-14T22:45:19.517Z,62.82
2023-04-14T22:47:47.170Z,62.83
2023-04-14T22:50:14.589Z,62.01
2023-04-14T22:52:41.642Z,61.39
2023-04-14T22:56:18.073Z,62.04
2023-04-14T22:58:45.147Z,61.82
2023-04-14T23:01:21.975Z,60.92
2023-04-14T23:03:52.567Z,62.58
2023-04-14T23:06:20.664Z,62.25
2023-04-14T23:08:48.509Z,60.79
2023-04-14T23:11:19.776Z,60.68
2023-04-14T23:13:47.836Z,60.58
2023-04-14T23:16:16.919Z,59.85
2023-04-14T23:18:44.102Z,63.15
2023-04-14T23:22:19.942Z,61.34
2023-04-14T23:24:47.449Z,60.83
2023-04-14T23:27:14.550Z,60.91
2023-04-14T23:29:41.669Z,60.58
2023-04-14T23:32:09.547Z,61.65
2023-04-14T23:34:37.759Z,60.08
2023-04-14T23:37:05.609Z,59.91
2023-04-14T23:39:32.796Z,59.69
2023-04-14T23:42:00.722Z,59.78
2023-04-14T23:44:27.788Z,60.46
2023-04-14T23:46:55.459Z,59.55
2023-04-14T23:49:24.195Z,59.08
2023-04-14T23:51:59.459Z,59.22
2023-04-14T23:54:27.848Z,58.82
2023-04-14T23:56:54.986Z,58.67
2023-04-14T23:59:22.041Z,58.17
